Harpersville, Alabama
Current Conditions -  °F | °C
As of 6:15 AM on Sunday 23 Nov 2014 (Local Time) from KSCD Reporting Station
Light Rain Light Rain  
Wind Chill: 56°   Ceiling: 1000
Heat Index: 56°   Visibility: 5mi
Dew Point: 56°   Wind: 10mph
Humidity: 100%   Direction: 120°ESE
Pressure: 29.9"   Gusts: 17mph
Location:  33.34°N, 86.44°W
Report Text: KSCD 231215Z AUTO 12009G15KT 5SM -RA BKN010 BKN025 OVC033 14/14 A2990 RMK AO2 T01360136
Loading
Personal Weather Stations






























Interactive Weather Map New forecast layout! Learn more

10-Day Weather Forecast

Advertisements
Track Severe Weather on mobile